createdAt,value
2017-11-08T00:01:03.187Z,18.27
2017-11-08T00:03:40.909Z,20.10
2017-11-08T00:06:17.572Z,19.23
2017-11-08T00:08:55.341Z,19.13
2017-11-08T00:11:32.096Z,20.43
2017-11-08T00:14:11.401Z,20.10
2017-11-08T00:16:50.495Z,18.40
2017-11-08T00:19:27.454Z,18.60
2017-11-08T00:22:08.069Z,19.23
2017-11-08T00:24:46.994Z,20.00
2017-11-08T00:27:24.278Z,20.70
2017-11-08T00:30:02.290Z,19.47
2017-11-08T00:32:39.374Z,20.27
2017-11-08T00:35:16.292Z,18.53
2017-11-08T00:37:53.506Z,19.70
2017-11-08T00:40:31.417Z,19.50
2017-11-08T00:43:00.398Z,18.43
2017-11-08T00:45:37.201Z,18.60
2017-11-08T00:48:14.101Z,18.67
2017-11-08T00:50:53.523Z,17.60
2017-11-08T00:53:30.762Z,18.77
2017-11-08T00:56:11.602Z,17.30
2017-11-08T00:58:48.347Z,19.40
2017-11-08T01:01:25.841Z,17.57
2017-11-08T01:04:03.285Z,18.83
2017-11-08T01:06:40.307Z,18.53
2017-11-08T01:09:17.184Z,19.00
2017-11-08T01:11:55.186Z,17.10
2017-11-08T01:14:31.972Z,19.43
2017-11-08T01:17:09.455Z,18.57
2017-11-08T01:19:46.440Z,18.63
2017-11-08T01:22:25.519Z,16.90
2017-11-08T01:25:02.310Z,19.27
2017-11-08T01:27:39.761Z,21.33
2017-11-08T01:30:17.071Z,20.27
2017-11-08T01:32:58.455Z,19.87
2017-11-08T01:35:35.073Z,17.87
2017-11-08T01:38:15.995Z,19.30
2017-11-08T01:40:53.407Z,19.30
2017-11-08T01:43:32.056Z,19.07
2017-11-08T01:46:09.119Z,18.50
2017-11-08T01:48:50.211Z,18.60
2017-11-08T01:51:26.891Z,19.17
2017-11-08T01:54:04.111Z,18.67
2017-11-08T01:56:41.240Z,18.90
2017-11-08T01:59:19.065Z,17.30
2017-11-08T02:01:55.663Z,18.00
2017-11-08T02:04:33.737Z,19.63
2017-11-08T02:07:10.091Z,18.27
2017-11-08T02:09:48.149Z,19.90
2017-11-08T02:12:17.166Z,19.30
2017-11-08T02:14:56.025Z,20.23
2017-11-08T02:17:33.499Z,19.07
2017-11-08T02:20:10.687Z,20.23
2017-11-08T02:22:47.599Z,18.40
2017-11-08T02:25:31.334Z,19.80
2017-11-08T02:28:10.416Z,20.47
2017-11-08T02:30:47.708Z,21.17
2017-11-08T02:33:24.551Z,19.47
2017-11-08T02:36:02.329Z,18.67
2017-11-08T02:38:39.332Z,19.90
2017-11-08T02:44:26.727Z,18.83
2017-11-08T02:47:06.468Z,19.83
2017-11-08T02:49:45.675Z,19.27
2017-11-08T02:52:22.615Z,20.17
2017-11-08T02:55:05.426Z,18.87
2017-11-08T02:57:42.715Z,18.80
2017-11-08T03:00:20.806Z,19.63
2017-11-08T03:02:57.519Z,18.97
2017-11-08T03:05:38.473Z,19.80
2017-11-08T03:08:15.352Z,18.63
2017-11-08T03:10:54.556Z,18.40
2017-11-08T03:13:33.437Z,19.20
2017-11-08T03:16:10.647Z,19.20
2017-11-08T03:18:47.581Z,16.47
2017-11-08T03:21:25.703Z,16.70
2017-11-08T03:24:02.649Z,20.17
2017-11-08T03:26:40.197Z,18.67
2017-11-08T03:29:17.094Z,17.77
2017-11-08T03:31:53.838Z,18.63
2017-11-08T03:34:31.260Z,18.63
2017-11-08T03:37:08.190Z,18.00
2017-11-08T03:39:45.634Z,18.47
2017-11-08T03:42:22.287Z,18.00
2017-11-08T03:44:59.762Z,19.07
2017-11-08T03:47:36.449Z,18.53
2017-11-08T03:50:13.710Z,18.53
2017-11-08T03:52:53.014Z,19.27
2017-11-08T03:55:30.466Z,17.47
2017-11-08T03:58:08.948Z,19.70
2017-11-08T04:00:47.889Z,18.63
2017-11-08T04:03:26.580Z,17.00
2017-11-08T04:06:03.810Z,20.03
2017-11-08T04:08:44.249Z,17.87
2017-11-08T04:11:20.833Z,16.80
2017-11-08T04:13:57.981Z,18.70
2017-11-08T04:16:35.177Z,18.43
2017-11-08T04:19:13.265Z,17.97
2017-11-08T04:21:50.112Z,18.00
2017-11-08T04:24:27.487Z,18.33
2017-11-08T04:27:07.663Z,16.97
2017-11-08T04:29:45.182Z,17.90
2017-11-08T04:32:22.478Z,17.27
2017-11-08T04:34:59.313Z,17.10
2017-11-08T04:37:36.557Z,16.93
2017-11-08T04:40:14.117Z,18.57
2017-11-08T04:42:42.993Z,16.60
2017-11-08T04:45:27.180Z,17.90
2017-11-08T04:48:03.835Z,17.80
2017-11-08T04:50:44.804Z,16.37
2017-11-08T04:53:21.600Z,16.93
2017-11-08T04:56:00.326Z,17.93
2017-11-08T04:58:37.422Z,17.93
2017-11-08T05:01:14.917Z,17.93
2017-11-08T05:03:43.891Z,21.77
2017-11-08T05:06:21.827Z,19.23
2017-11-08T05:08:58.778Z,19.20
2017-11-08T05:11:36.570Z,21.13
2017-11-08T05:14:13.480Z,21.00
2017-11-08T05:16:50.521Z,19.37
2017-11-08T05:19:27.936Z,17.77
2017-11-08T05:22:10.148Z,17.30
2017-11-08T05:24:47.153Z,16.23
2017-11-08T05:27:24.337Z,17.10
2017-11-08T05:30:01.806Z,14.53
2017-11-08T05:32:40.206Z,16.40
2017-11-08T05:35:17.508Z,16.77
2017-11-08T05:37:52.605Z,16.73
2017-11-08T05:40:21.491Z,16.00
2017-11-08T05:43:00.955Z,15.90
2017-11-08T05:45:40.106Z,17.10
2017-11-08T05:48:17.367Z,17.00
2017-11-08T05:50:54.709Z,16.63
2017-11-08T05:53:31.688Z,15.63
2017-11-08T05:56:08.635Z,16.87
2017-11-08T05:58:47.724Z,17.00
2017-11-08T06:01:27.109Z,17.10
2017-11-08T06:04:04.914Z,16.23
2017-11-08T06:06:42.416Z,16.27
2017-11-08T06:09:19.313Z,16.03
2017-11-08T06:11:58.597Z,15.53
2017-11-08T06:14:38.394Z,15.30
2017-11-08T06:17:21.435Z,14.80
2017-11-08T06:19:58.159Z,14.90
2017-11-08T06:22:38.273Z,15.17
2017-11-08T06:25:17.690Z,14.97
2017-11-08T06:27:54.826Z,15.27
2017-11-08T06:30:32.152Z,14.80
2017-11-08T06:33:08.880Z,16.30
2017-11-08T06:35:48.762Z,14.83
2017-11-08T06:38:25.729Z,14.60
2017-11-08T06:41:04.796Z,14.50
2017-11-08T06:43:47.584Z,14.30
2017-11-08T06:46:24.421Z,14.87
2017-11-08T06:49:01.590Z,14.23
2017-11-08T06:51:38.774Z,12.77
2017-11-08T06:54:16.653Z,14.60
2017-11-08T06:56:53.975Z,12.27
2017-11-08T06:59:30.599Z,13.27
2017-11-08T07:02:09.759Z,14.17
2017-11-08T07:04:46.557Z,12.37
2017-11-08T07:07:24.451Z,13.70
2017-11-08T07:10:01.517Z,12.20
2017-11-08T07:12:38.643Z,10.03
2017-11-08T07:15:15.988Z,12.77
2017-11-08T07:17:52.806Z,14.00
2017-11-08T07:20:30.157Z,13.60
2017-11-08T07:23:07.180Z,13.40
2017-11-08T07:25:44.006Z,15.17
2017-11-08T07:28:20.917Z,11.67
2017-11-08T07:30:57.867Z,12.23
2017-11-08T07:33:36.722Z,12.10
2017-11-08T07:36:14.067Z,11.47
2017-11-08T07:38:52.545Z,13.07
2017-11-08T07:41:29.568Z,11.90
2017-11-08T07:44:06.754Z,12.80
2017-11-08T07:46:43.850Z,12.20
2017-11-08T07:52:07.983Z,11.93
2017-11-08T07:54:48.310Z,13.23
2017-11-08T07:57:27.255Z,12.60
2017-11-08T08:00:04.588Z,12.03
2017-11-08T08:02:42.333Z,13.37
2017-11-08T08:05:18.972Z,13.20
2017-11-08T08:07:59.765Z,11.50
2017-11-08T08:10:40.140Z,12.10
2017-11-08T08:13:19.701Z,11.50
2017-11-08T08:15:56.941Z,12.60
2017-11-08T08:18:34.851Z,13.30
2017-11-08T08:21:16.458Z,11.00
2017-11-08T08:23:54.626Z,12.70
2017-11-08T08:26:32.550Z,12.17
2017-11-08T08:29:09.468Z,13.00
2017-11-08T08:31:46.095Z,12.23
2017-11-08T08:34:24.954Z,10.60
2017-11-08T08:37:01.838Z,11.90
2017-11-08T08:39:38.624Z,12.17
2017-11-08T08:42:14.969Z,11.07
2017-11-08T08:44:52.055Z,11.50
2017-11-08T08:47:28.960Z,10.23
2017-11-08T08:50:06.239Z,11.40
2017-11-08T08:52:43.096Z,12.03
2017-11-08T08:55:20.130Z,13.17
2017-11-08T08:57:57.057Z,11.00
2017-11-08T09:00:35.494Z,12.23
2017-11-08T09:03:12.707Z,10.97
2017-11-08T09:05:50.498Z,11.43
2017-11-08T09:08:27.217Z,10.40
2017-11-08T09:11:05.361Z,9.20
2017-11-08T09:13:42.312Z,12.10
2017-11-08T09:16:19.307Z,9.97
2017-11-08T09:18:56.637Z,9.80
2017-11-08T09:21:44.465Z,11.13
2017-11-08T09:24:26.329Z,9.83
2017-11-08T09:27:04.164Z,12.70
2017-11-08T09:29:41.295Z,12.50
2017-11-08T09:32:18.456Z,11.80
2017-11-08T09:35:00.443Z,12.17
2017-11-08T09:37:39.835Z,13.43
2017-11-08T09:40:16.482Z,12.60
2017-11-08T09:42:55.359Z,13.13
2017-11-08T09:45:37.309Z,15.20
2017-11-08T09:48:13.932Z,15.27
2017-11-08T09:50:50.989Z,12.37
2017-11-08T09:53:31.010Z,11.93
2017-11-08T09:56:08.630Z,12.97
2017-11-08T09:58:45.420Z,12.23
2017-11-08T10:01:24.563Z,11.93
2017-11-08T10:04:03.459Z,12.10
2017-11-08T10:06:40.959Z,11.47
2017-11-08T10:09:30.512Z,11.50
2017-11-08T10:12:12.890Z,10.40
2017-11-08T10:14:49.925Z,9.20
2017-11-08T10:17:26.885Z,9.87
2017-11-08T10:20:03.938Z,10.00
2017-11-08T10:22:40.889Z,10.30
2017-11-08T10:25:18.189Z,11.60
2017-11-08T10:27:56.039Z,10.43
2017-11-08T10:30:32.530Z,11.23
2017-11-08T10:33:09.892Z,9.50
2017-11-08T10:35:46.399Z,9.40
2017-11-08T10:38:23.015Z,9.27
2017-11-08T10:41:00.612Z,8.80
2017-11-08T10:43:29.424Z,9.33
2017-11-08T10:46:06.472Z,7.80
2017-11-08T10:48:38.016Z,7.43
2017-11-08T10:51:16.053Z,8.90
2017-11-08T10:53:52.931Z,8.33
2017-11-08T10:56:31.348Z,6.53
2017-11-08T10:59:13.885Z,6.03
2017-11-08T11:01:53.190Z,5.43
2017-11-08T11:04:32.630Z,5.03
2017-11-08T11:07:11.490Z,6.00
2017-11-08T11:09:49.180Z,6.30
2017-11-08T11:12:26.672Z,5.97
2017-11-08T11:15:03.753Z,7.47
2017-11-08T11:17:40.548Z,6.70
2017-11-08T11:20:19.361Z,6.20
2017-11-08T11:22:56.325Z,7.27
2017-11-08T11:25:32.950Z,8.00
2017-11-08T11:28:12.405Z,5.70
2017-11-08T11:30:52.591Z,5.33
2017-11-08T11:33:29.400Z,5.17
2017-11-08T11:39:00.264Z,5.20
2017-11-08T11:41:37.253Z,5.20
2017-11-08T11:44:14.983Z,4.33
2017-11-08T11:46:52.218Z,4.47
2017-11-08T11:49:34.815Z,5.13
2017-11-08T11:52:12.113Z,5.47
2017-11-08T11:54:49.875Z,4.30
2017-11-08T11:57:26.932Z,5.50
2017-11-08T12:00:08.761Z,4.50
2017-11-08T12:02:45.812Z,4.53
2017-11-08T12:05:23.699Z,4.33
2017-11-08T12:08:00.623Z,5.10
2017-11-08T12:10:40.786Z,4.60
2017-11-08T12:13:17.737Z,5.17
2017-11-08T12:15:55.837Z,6.83
2017-11-08T12:18:33.040Z,4.83
2017-11-08T12:21:13.904Z,4.73
2017-11-08T12:23:51.001Z,6.00
2017-11-08T12:26:32.553Z,5.53
2017-11-08T12:29:09.883Z,4.40
2017-11-08T12:31:46.817Z,5.10
2017-11-08T12:34:23.545Z,5.07
2017-11-08T12:37:00.474Z,5.20
2017-11-08T12:39:37.118Z,4.37
2017-11-08T12:45:20.462Z,5.33
2017-11-08T12:47:57.378Z,4.80
2017-11-08T12:50:35.331Z,4.87
2017-11-08T12:53:12.328Z,6.27
2017-11-08T12:55:49.583Z,4.60
2017-11-08T12:58:26.518Z,5.13
2017-11-08T13:01:03.354Z,4.90
2017-11-08T13:03:40.082Z,5.47
2017-11-08T13:06:18.845Z,5.33
2017-11-08T13:08:55.896Z,5.10
2017-11-08T13:11:37.006Z,5.53
2017-11-08T13:14:14.505Z,5.47
2017-11-08T13:16:55.195Z,5.10
2017-11-08T13:19:32.650Z,4.97
2017-11-08T13:22:10.629Z,5.67
2017-11-08T13:24:47.526Z,4.97
2017-11-08T13:27:27.284Z,5.77
2017-11-08T13:30:04.355Z,5.30
2017-11-08T13:32:42.342Z,5.53
2017-11-08T13:35:19.296Z,6.97
2017-11-08T13:37:58.682Z,5.70
2017-11-08T13:40:35.209Z,5.10
2017-11-08T13:43:12.261Z,5.50
2017-11-08T13:45:50.677Z,5.60
2017-11-08T13:48:27.943Z,5.73
2017-11-08T13:51:05.141Z,6.00
2017-11-08T13:53:42.122Z,5.50
2017-11-08T13:56:19.011Z,5.77
2017-11-08T14:01:38.461Z,4.80
2017-11-08T14:04:19.000Z,5.33
2017-11-08T14:07:01.048Z,5.00
2017-11-08T14:09:38.750Z,4.83
2017-11-08T14:12:15.465Z,5.20
2017-11-08T14:14:52.600Z,5.80
2017-11-08T14:17:29.276Z,5.50
2017-11-08T14:20:06.118Z,6.67
2017-11-08T14:22:43.190Z,6.00
2017-11-08T14:25:24.441Z,5.90
2017-11-08T14:28:01.859Z,7.13
2017-11-08T14:30:38.847Z,6.53
2017-11-08T14:33:15.355Z,5.93
2017-11-08T14:35:52.095Z,6.17
2017-11-08T14:38:29.051Z,4.97
2017-11-08T14:41:06.965Z,5.90
2017-11-08T14:43:35.784Z,7.30
2017-11-08T14:46:13.831Z,6.43
2017-11-08T14:48:50.698Z,6.80
2017-11-08T14:51:27.390Z,5.60
2017-11-08T14:54:07.288Z,5.80
2017-11-08T14:56:44.180Z,6.53
2017-11-08T14:59:21.104Z,6.80
2017-11-08T15:01:58.127Z,8.07
2017-11-08T15:04:35.370Z,7.80
2017-11-08T15:07:16.709Z,6.20
2017-11-08T15:09:53.836Z,6.47
2017-11-08T15:12:36.724Z,5.77
2017-11-08T15:15:16.260Z,5.33
2017-11-08T15:17:59.809Z,5.50
2017-11-08T15:20:37.030Z,5.13
2017-11-08T15:23:13.818Z,5.10
2017-11-08T15:25:50.616Z,6.33
2017-11-08T15:28:28.229Z,7.40
2017-11-08T15:31:06.753Z,7.07
2017-11-08T15:33:47.602Z,6.07
2017-11-08T15:36:24.502Z,5.50
2017-11-08T15:39:03.176Z,5.50
2017-11-08T15:41:39.733Z,5.27
2017-11-08T15:44:22.208Z,5.17
2017-11-08T15:46:59.119Z,6.30
2017-11-08T15:49:35.862Z,6.60
2017-11-08T15:52:12.497Z,6.77
2017-11-08T15:54:50.105Z,8.00
2017-11-08T15:57:26.905Z,6.40
2017-11-08T16:00:06.035Z,5.33
2017-11-08T16:02:44.429Z,6.40
2017-11-08T16:05:22.353Z,6.97
2017-11-08T16:07:58.975Z,5.90
2017-11-08T16:10:37.540Z,9.40
2017-11-08T16:13:14.832Z,16.57
2017-11-08T16:15:52.235Z,7.90
2017-11-08T16:18:29.119Z,8.77
2017-11-08T16:21:06.129Z,6.80
2017-11-08T16:23:43.261Z,6.57
2017-11-08T16:26:21.855Z,5.10
2017-11-08T16:28:58.527Z,6.67
2017-11-08T16:31:38.544Z,6.40
2017-11-08T16:34:15.833Z,7.10
2017-11-08T16:36:53.603Z,7.20
2017-11-08T16:39:31.949Z,6.97
2017-11-08T16:45:10.332Z,6.37
2017-11-08T16:47:47.291Z,8.07
2017-11-08T16:50:24.249Z,6.00
2017-11-08T16:53:01.428Z,6.90
2017-11-08T16:55:42.761Z,7.60
2017-11-08T16:58:19.892Z,8.63
2017-11-08T17:00:58.290Z,7.33
2017-11-08T17:03:35.345Z,6.60
2017-11-08T17:06:13.089Z,7.20
2017-11-08T17:08:50.032Z,6.77
2017-11-08T17:11:26.895Z,5.53
2017-11-08T17:14:03.978Z,6.63
2017-11-08T17:16:41.128Z,6.70
2017-11-08T17:19:18.383Z,6.30
2017-11-08T17:21:58.719Z,5.87
2017-11-08T17:24:35.519Z,5.97
2017-11-08T17:27:13.291Z,6.63
2017-11-08T17:29:50.764Z,7.90
2017-11-08T17:32:28.201Z,7.50
2017-11-08T17:35:05.349Z,8.07
2017-11-08T17:37:42.115Z,9.20
2017-11-08T17:40:18.652Z,6.67
2017-11-08T17:42:55.496Z,6.10
2017-11-08T17:45:24.422Z,6.03
2017-11-08T17:48:03.595Z,5.90
2017-11-08T17:50:32.489Z,6.20
2017-11-08T17:53:09.780Z,7.20
2017-11-08T17:55:47.211Z,6.60
2017-11-08T17:58:24.156Z,6.10
2017-11-08T18:01:00.946Z,6.20
2017-11-08T18:03:39.637Z,5.97
2017-11-08T18:06:16.168Z,6.13
2017-11-08T18:08:54.654Z,6.10
2017-11-08T18:11:32.068Z,6.67
2017-11-08T18:14:10.692Z,5.63
2017-11-08T18:16:47.869Z,6.03
2017-11-08T18:19:27.472Z,6.30
2017-11-08T18:22:04.769Z,6.80
2017-11-08T18:24:46.256Z,6.10
2017-11-08T18:27:22.848Z,6.67
2017-11-08T18:30:03.414Z,6.80
2017-11-08T18:32:40.599Z,6.90
2017-11-08T18:35:21.749Z,6.00
2017-11-08T18:37:51.690Z,5.63
2017-11-08T18:40:33.060Z,6.13
2017-11-08T18:46:14.087Z,6.60
2017-11-08T18:48:50.909Z,6.33
2017-11-08T18:51:27.838Z,6.70
2017-11-08T18:54:05.154Z,6.70
2017-11-08T18:56:43.509Z,5.60
2017-11-08T18:59:20.989Z,5.80
2017-11-08T19:01:58.283Z,5.70
2017-11-08T19:04:35.443Z,5.13
2017-11-08T19:07:13.448Z,5.80
2017-11-08T19:09:50.515Z,5.53
2017-11-08T19:12:28.385Z,5.70
2017-11-08T19:15:05.925Z,5.67
2017-11-08T19:17:44.139Z,6.03
2017-11-08T19:20:21.384Z,6.30
2017-11-08T19:22:58.614Z,4.90
2017-11-08T19:25:27.628Z,5.83
2017-11-08T19:28:06.098Z,5.30
2017-11-08T19:30:43.190Z,5.50
2017-11-08T19:33:21.285Z,6.50
2017-11-08T19:35:58.193Z,5.50
2017-11-08T19:38:35.198Z,5.87
2017-11-08T19:41:12.096Z,6.13
2017-11-08T19:43:49.963Z,6.37
2017-11-08T19:46:26.669Z,7.43
2017-11-08T19:49:04.949Z,8.97
2017-11-08T19:51:42.237Z,7.00
2017-11-08T19:54:21.601Z,6.77
2017-11-08T19:56:58.522Z,9.10
2017-11-08T19:59:37.928Z,16.20
2017-11-08T20:02:14.866Z,8.90
2017-11-08T20:04:54.711Z,12.20
2017-11-08T20:07:32.101Z,8.90
2017-11-08T20:10:09.832Z,7.50
2017-11-08T20:12:38.766Z,8.70
2017-11-08T20:15:07.716Z,6.30
2017-11-08T20:17:44.699Z,5.97
2017-11-08T20:20:21.521Z,5.90
2017-11-08T20:23:00.849Z,5.10
2017-11-08T20:25:33.621Z,6.37
2017-11-08T20:28:11.128Z,5.30
2017-11-08T20:49:34.846Z,6.33
2017-11-08T20:52:12.267Z,6.33
2017-11-08T20:54:49.391Z,6.70
2017-11-08T20:57:26.191Z,7.10
2017-11-08T20:59:58.081Z,5.90
2017-11-08T21:02:35.230Z,6.87
2017-11-08T21:05:12.831Z,6.50
2017-11-08T21:07:49.916Z,6.77
2017-11-08T21:10:28.957Z,6.30
2017-11-08T21:13:05.863Z,6.13
2017-11-08T21:15:51.883Z,6.40
2017-11-08T21:18:22.938Z,7.57
2017-11-08T21:20:59.356Z,7.53
2017-11-08T21:23:36.355Z,7.40
2017-11-08T21:26:14.438Z,6.70
2017-11-08T21:28:51.493Z,7.07
2017-11-08T21:31:35.090Z,7.57
2017-11-08T21:34:12.082Z,7.53
2017-11-08T21:36:48.998Z,7.47
2017-11-08T21:39:27.679Z,6.53
2017-11-08T21:42:10.168Z,6.30
2017-11-08T21:44:47.391Z,6.23
2017-11-08T21:47:27.804Z,6.90
2017-11-08T21:49:56.706Z,7.90
2017-11-08T21:58:38.668Z,6.63
2017-11-08T22:01:21.746Z,6.90
2017-11-08T22:04:04.791Z,6.30
2017-11-08T22:06:43.579Z,7.23
2017-11-08T22:09:27.365Z,7.23
2017-11-08T22:12:04.604Z,5.40
2017-11-08T22:14:43.493Z,6.03
2017-11-08T22:17:24.951Z,7.13
2017-11-08T22:20:01.695Z,6.40
2017-11-08T22:22:38.444Z,5.70
2017-11-08T22:25:16.362Z,5.97
2017-11-08T22:27:53.354Z,5.97
2017-11-08T22:30:23.245Z,5.60
2017-11-08T22:33:13.023Z,5.10
2017-11-08T22:35:50.607Z,5.50
2017-11-08T22:38:28.247Z,4.80
2017-11-08T22:41:08.113Z,4.57
2017-11-08T22:43:49.376Z,4.53
2017-11-08T22:46:29.412Z,3.97
2017-11-08T22:49:05.956Z,4.10
2017-11-08T22:51:44.660Z,4.47
2017-11-08T22:54:21.275Z,4.20
2017-11-08T22:56:58.464Z,4.27
2017-11-08T22:59:35.077Z,3.40
2017-11-08T23:02:12.640Z,3.70
2017-11-08T23:04:49.541Z,3.77
2017-11-08T23:07:30.436Z,4.37
2017-11-08T23:10:07.840Z,3.70
2017-11-08T23:12:44.654Z,3.83
2017-11-08T23:15:21.598Z,3.90
2017-11-08T23:18:02.032Z,3.63
2017-11-08T23:20:40.702Z,4.00
2017-11-08T23:23:17.883Z,4.07
2017-11-08T23:25:55.852Z,3.80
2017-11-08T23:28:37.370Z,4.03
2017-11-08T23:31:14.749Z,3.87
2017-11-08T23:33:54.097Z,4.20
2017-11-08T23:36:30.959Z,4.20
2017-11-08T23:39:10.786Z,3.63
2017-11-08T23:41:47.367Z,4.23
2017-11-08T23:44:28.110Z,3.60
2017-11-08T23:46:58.876Z,4.00
2017-11-08T23:49:42.457Z,4.30
2017-11-08T23:52:19.413Z,3.77
2017-11-08T23:54:56.554Z,3.50
2017-11-08T23:57:36.030Z,4.40
